Time;durP1;ratioP1;P1;durP2;ratioP2;P2;SDS_P1;SDS_P2;PMS_P1;PMS_P2;Temp;Humidity;BMP_temperature;BMP_pressure;BME280_temperature;BME280_humidity;BME280_pressure;Samples;Min_cycle;Max_cycle;Signal;HPM_P1;HPM_P2
2022/01/19 00:02:21;;;;;;;9.50;8.60;;;4.20;54.40;;;;;;4994539;28;20674;-85
2022/01/19 00:04:47;;;;;;;9.80;8.83;;;4.10;54.50;;;;;;4994744;28;20240;-85
2022/01/19 00:07:13;;;;;;;9.53;8.77;;;4.10;54.50;;;;;;4994908;28;20181;-85
2022/01/19 00:09:38;;;;;;;8.90;8.00;;;4.10;55.00;;;;;;4994473;28;20213;-84
2022/01/19 00:12:04;;;;;;;9.97;9.00;;;4.00;54.80;;;;;;4994619;28;20212;-84
2022/01/19 00:14:30;;;;;;;9.87;8.10;;;4.00;55.30;;;;;;4994328;28;20613;-85
2022/01/19 00:16:56;;;;;;;8.90;8.07;;;3.90;55.10;;;;;;4994066;28;20743;-84
2022/01/19 00:19:22;;;;;;;9.40;8.60;;;3.90;55.50;;;;;;4994362;28;20512;-85
2022/01/19 00:21:47;;;;;;;8.37;7.67;;;3.90;55.40;;;;;;4994234;28;20213;-86
2022/01/19 00:24:13;;;;;;;9.20;8.30;;;3.90;56.50;;;;;;4993168;28;20181;-84
2022/01/19 00:26:39;;;;;;;10.60;8.77;;;3.90;55.70;;;;;;4993542;28;20182;-85
2022/01/19 00:29:04;;;;;;;10.67;8.83;;;3.80;55.70;;;;;;4993262;28;20185;-85
2022/01/19 00:31:30;;;;;;;9.73;8.93;;;3.80;55.90;;;;;;4993375;28;20193;-85
2022/01/19 00:33:56;;;;;;;10.73;9.17;;;3.90;56.90;;;;;;4993075;28;20186;-85
2022/01/19 00:36:22;;;;;;;9.67;8.80;;;3.90;56.80;;;;;;4994672;28;20655;-86
2022/01/19 00:38:47;;;;;;;8.87;7.93;;;3.90;57.20;;;;;;4993015;28;20580;-86
2022/01/19 00:41:13;;;;;;;8.80;7.90;;;3.80;57.20;;;;;;4993145;28;20206;-84
2022/01/19 00:43:39;;;;;;;9.50;8.67;;;3.90;56.90;;;;;;4993155;28;20178;-85
2022/01/19 00:46:04;;;;;;;9.03;8.23;;;3.80;56.80;;;;;;4993195;28;20268;-85
2022/01/19 00:48:30;;;;;;;9.80;8.90;;;3.70;57.60;;;;;;4993348;28;20178;-84
2022/01/19 00:50:57;;;;;;;10.13;9.13;;;3.70;57.20;;;;;;4993275;28;20186;-86
2022/01/19 00:53:24;;;;;;;11.43;9.60;;;3.60;56.60;;;;;;4992840;28;20203;-85
2022/01/19 00:55:50;;;;;;;12.17;8.00;;;3.60;56.60;;;;;;4992755;28;20437;-85
2022/01/19 00:58:16;;;;;;;10.50;9.50;;;3.50;57.80;;;;;;4993126;28;20425;-86
2022/01/19 01:00:42;;;;;;;9.40;8.50;;;3.50;56.90;;;;;;4992696;28;20460;-86
2022/01/19 01:03:08;;;;;;;9.80;8.97;;;3.50;57.70;;;;;;4993006;28;20268;-85
2022/01/19 01:05:34;;;;;;;12.07;9.00;;;3.50;57.70;;;;;;4993193;28;20540;-85
2022/01/19 01:08:00;;;;;;;9.37;8.57;;;3.40;57.50;;;;;;4992821;28;20178;-84
2022/01/19 01:10:25;;;;;;;11.60;9.40;;;3.40;57.60;;;;;;4992681;28;20425;-85
2022/01/19 01:12:53;;;;;;;10.57;9.47;;;3.30;58.40;;;;;;4992829;28;20635;-85
2022/01/19 01:16:17;;;;;;;10.37;8.50;;;3.40;58.80;;;;;;4993146;28;20182;-85
2022/01/19 01:18:21;;;;;;;9.90;9.00;;;3.40;58.20;;;;;;4996872;28;20434;-86
2022/01/19 01:20:52;;;;;;;11.23;10.10;;;3.40;57.70;;;;;;4992673;28;20543;-86
2022/01/19 01:23:20;;;;;;;11.70;10.00;;;3.30;57.70;;;;;;4992541;28;20922;-85
2022/01/19 01:25:47;;;;;;;13.53;9.80;;;3.30;58.40;;;;;;4992698;28;20417;-85
2022/01/19 01:28:13;;;;;;;11.13;8.80;;;3.30;58.20;;;;;;4992284;28;20413;-84
2022/01/19 01:30:40;;;;;;;10.17;9.17;;;3.30;58.00;;;;;;4995212;28;20421;-84
2022/01/19 01:33:06;;;;;;;10.60;9.70;;;3.30;58.90;;;;;;4998010;28;20472;-85
2022/01/19 01:35:32;;;;;;;9.83;8.87;;;3.20;59.30;;;;;;4995915;28;20421;-84
2022/01/19 01:37:58;;;;;;;10.70;9.80;;;3.20;59.00;;;;;;4977023;28;20418;-84
2022/01/19 01:40:25;;;;;;;11.73;10.20;;;3.20;58.70;;;;;;4993201;28;20421;-83
2022/01/19 01:42:56;;;;;;;12.63;10.30;;;3.10;59.10;;;;;;4992582;28;20417;-85
2022/01/19 01:45:29;;;;;;;10.50;9.50;;;3.10;59.20;;;;;;4993038;28;20856;-85
2022/01/19 01:48:02;;;;;;;10.50;9.50;;;3.00;58.70;;;;;;4992345;28;20631;-85
2022/01/19 01:53:27;;;;;;;11.80;9.97;;;3.10;59.40;;;;;;4993414;28;20431;-84
2022/01/19 01:56:04;;;;;;;10.47;9.47;;;3.10;60.30;;;;;;4991279;28;20961;-85
2022/01/19 01:58:33;;;;;;;11.87;10.70;;;3.10;59.20;;;;;;4991146;28;20467;-85
2022/01/19 02:00:59;;;;;;;10.00;9.20;;;3.00;59.30;;;;;;4990669;28;20945;-85
2022/01/19 02:03:26;;;;;;;11.87;10.53;;;3.00;59.40;;;;;;4990584;28;20409;-85
2022/01/19 02:06:27;;;;;;;11.33;10.30;;;3.00;59.50;;;;;;4990599;28;20425;-85
2022/01/19 02:08:46;;;;;;;11.80;10.60;;;3.00;59.60;;;;;;4991642;28;20946;-85
2022/01/19 02:24:45;;;;;;;10.60;9.63;;;2.90;60.30;;;;;;5008343;28;20546;-84
2022/01/19 02:41:01;;;;;;;13.97;11.57;;;2.90;60.20;;;;;;4989991;28;20255;-84
2022/01/19 02:43:28;;;;;;;12.23;11.00;;;2.80;60.70;;;;;;4988039;28;20421;-84
2022/01/19 02:51:23;;;;;;;12.37;11.17;;;2.80;61.00;;;;;;4993431;28;20456;-84
2022/01/19 02:53:48;;;;;;;11.33;10.33;;;2.80;61.20;;;;;;4991374;28;20443;-83
2022/01/19 02:56:28;;;;;;;11.40;10.40;;;2.70;61.20;;;;;;4991550;28;20186;-84
2022/01/19 02:59:10;;;;;;;13.63;11.57;;;2.70;61.80;;;;;;4991753;28;20174;-83
2022/01/19 03:09:45;;;;;;;14.30;11.40;;;2.60;61.70;;;;;;4993143;28;20424;-84
2022/01/19 03:12:11;;;;;;;12.33;11.13;;;2.60;62.30;;;;;;4991662;28;20425;-83
2022/01/19 03:14:37;;;;;;;11.20;10.10;;;2.60;61.70;;;;;;4992071;28;20584;-83
2022/01/19 03:17:05;;;;;;;10.63;9.73;;;2.60;61.80;;;;;;4991216;28;20459;-83
2022/01/19 03:19:31;;;;;;;12.77;11.50;;;2.60;61.40;;;;;;4991856;28;20428;-83
2022/01/19 03:21:58;;;;;;;11.23;9.90;;;2.60;61.50;;;;;;4991180;28;20519;-83
2022/01/19 03:24:24;;;;;;;12.90;11.47;;;2.60;61.50;;;;;;4991963;28;20421;-84
2022/01/19 03:26:50;;;;;;;14.70;11.90;;;2.60;62.20;;;;;;4991981;28;20696;-84
2022/01/19 03:29:16;;;;;;;13.00;11.70;;;2.50;62.20;;;;;;4993747;28;20500;-83
2022/01/19 03:31:42;;;;;;;11.80;10.80;;;2.50;62.50;;;;;;4991479;28;20265;-84
2022/01/19 03:34:07;;;;;;;12.60;11.43;;;2.60;62.40;;;;;;4994060;28;20507;-85
2022/01/19 03:36:34;;;;;;;13.87;12.67;;;2.40;62.20;;;;;;4994198;28;20186;-86
2022/01/19 03:39:00;;;;;;;12.60;11.27;;;2.50;62.50;;;;;;4993967;28;20525;-85
2022/01/19 03:41:25;;;;;;;12.23;11.10;;;2.40;62.50;;;;;;4994156;28;20476;-85
2022/01/19 03:43:52;;;;;;;15.40;12.47;;;2.40;62.70;;;;;;4994219;28;20287;-85
2022/01/19 03:46:18;;;;;;;15.43;10.90;;;2.30;63.10;;;;;;4994457;28;20184;-85
2022/01/19 03:48:57;;;;;;;13.27;11.93;;;2.40;62.70;;;;;;4994008;28;20452;-85
2022/01/19 03:51:23;;;;;;;12.83;11.53;;;2.40;62.90;;;;;;4994290;28;20432;-85
2022/01/19 03:53:49;;;;;;;13.50;12.20;;;2.40;63.90;;;;;;4993241;28;20440;-85
2022/01/19 03:56:16;;;;;;;13.05;11.77;;;2.20;63.20;;;;;;4993213;28;20550;-85
2022/01/19 03:58:42;;;;;;;13.25;11.88;;;2.30;63.30;;;;;;4992597;28;20212;-85
2022/01/19 04:01:09;;;;;;;14.40;11.60;;;2.20;64.00;;;;;;4993069;28;20299;-84
2022/01/19 04:08:45;;;;;;;14.07;12.67;;;2.10;64.60;;;;;;4994840;28;20488;-84
2022/01/19 04:11:12;;;;;;;13.60;12.20;;;2.10;64.90;;;;;;4992693;28;20189;-85
2022/01/19 04:16:22;;;;;;;14.15;12.70;;;2.10;63.00;;;;;;4995213;28;20158;-85
2022/01/19 04:18:48;;;;;;;14.00;12.60;;;2.10;64.10;;;;;;4993144;28;20224;-85
2022/01/19 04:21:14;;;;;;;14.77;13.47;;;2.00;64.60;;;;;;4993146;28;20255;-84
2022/01/19 04:23:40;;;;;;;14.30;12.90;;;2.10;65.00;;;;;;4992643;28;20421;-85
2022/01/19 04:26:06;;;;;;;13.77;12.10;;;2.10;63.90;;;;;;4992597;28;20189;-86
2022/01/19 04:28:33;;;;;;;17.55;12.75;;;2.00;63.70;;;;;;4992420;28;20208;-84
2022/01/19 04:30:59;;;;;;;13.30;12.02;;;2.00;64.70;;;;;;4992591;28;20185;-85
2022/01/19 04:33:27;;;;;;;15.40;13.90;;;2.00;64.90;;;;;;4993658;28;20536;-84
2022/01/19 04:35:55;;;;;;;13.68;12.30;;;1.90;64.50;;;;;;4992005;28;20416;-85
2022/01/19 05:05:29;;;;;;;16.75;15.23;;;2.20;64.80;;;;;;4995136;28;20389;-85
2022/01/19 05:13:36;;;;;;;17.47;15.70;;;2.10;64.70;;;;;;4995156;28;20902;-84
2022/01/19 05:16:02;;;;;;;16.90;14.73;;;2.10;65.20;;;;;;4992554;28;20643;-83
2022/01/19 05:18:28;;;;;;;15.30;13.60;;;2.10;64.40;;;;;;4993223;28;20170;-83
2022/01/19 05:20:54;;;;;;;15.63;14.03;;;2.20;64.40;;;;;;4992864;28;20508;-83
2022/01/19 05:23:21;;;;;;;15.13;13.73;;;2.20;63.80;;;;;;4992912;28;20184;-80
2022/01/19 05:25:46;;;;;;;15.65;14.18;;;2.10;64.10;;;;;;4991507;28;20909;-80
2022/01/19 05:28:14;;;;;;;13.73;12.53;;;2.10;63.40;;;;;;4991286;28;20188;-79
2022/01/19 05:30:41;;;;;;;14.52;13.13;;;2.10;63.20;;;;;;4991358;28;20456;-80
2022/01/19 05:33:06;;;;;;;15.57;14.10;;;2.10;63.30;;;;;;4991346;28;20184;-82
2022/01/19 05:35:32;;;;;;;14.70;13.00;;;2.10;63.30;;;;;;4991571;28;20416;-87
2022/01/19 05:37:58;;;;;;;14.10;12.70;;;2.20;63.50;;;;;;4991894;28;20173;-82
2022/01/19 05:40:24;;;;;;;14.30;12.80;;;2.10;62.50;;;;;;4991382;28;20201;-82
2022/01/19 05:42:50;;;;;;;13.50;12.10;;;2.20;62.60;;;;;;4991358;28;20205;-82
2022/01/19 05:45:17;;;;;;;13.10;11.00;;;2.00;62.20;;;;;;4991478;28;20188;-82
2022/01/19 05:47:45;;;;;;;12.77;11.47;;;2.10;62.20;;;;;;4991629;28;20939;-81
2022/01/19 05:50:12;;;;;;;14.25;12.85;;;2.10;62.00;;;;;;4992801;28;20419;-83
2022/01/19 05:52:37;;;;;;;14.90;10.97;;;2.10;62.60;;;;;;4991444;28;20295;-83
2022/01/19 05:55:03;;;;;;;13.57;12.23;;;2.20;62.10;;;;;;4992329;28;20452;-83
2022/01/19 05:57:29;;;;;;;14.07;12.37;;;2.20;61.90;;;;;;4991660;28;20719;-83
2022/01/19 05:59:55;;;;;;;12.47;11.27;;;2.20;61.50;;;;;;4991682;28;20508;-84
2022/01/19 06:02:20;;;;;;;12.67;11.57;;;1.90;61.90;;;;;;4991774;28;20202;-82
2022/01/19 06:04:46;;;;;;;12.13;10.87;;;2.00;62.20;;;;;;4992634;28;20181;-83
2022/01/19 06:07:12;;;;;;;14.30;12.60;;;1.90;62.10;;;;;;4991693;28;20170;-85
2022/01/19 06:12:09;;;;;;;24.00;21.40;;;1.90;61.80;;;;;;4993494;28;20910;-83
2022/01/19 06:14:37;;;;;;;13.93;12.50;;;1.90;62.00;;;;;;4992531;28;20415;-82
2022/01/19 06:17:04;;;;;;;12.82;11.73;;;1.90;62.60;;;;;;4992545;28;20422;-84
2022/01/19 06:19:30;;;;;;;13.63;12.18;;;1.80;61.70;;;;;;4991613;28;20634;-84
2022/01/19 06:21:56;;;;;;;13.27;11.20;;;1.90;63.40;;;;;;4991612;28;20211;-84
2022/01/19 06:24:22;;;;;;;18.07;11.80;;;1.90;61.80;;;;;;4992177;28;20188;-85
2022/01/19 06:26:48;;;;;;;12.70;11.20;;;1.90;61.80;;;;;;4993345;28;20189;-84
2022/01/19 06:29:14;;;;;;;13.40;12.03;;;1.80;61.60;;;;;;4991652;28;20170;-84
2022/01/19 06:31:40;;;;;;;13.10;11.80;;;1.80;62.30;;;;;;4989283;28;20264;-85
2022/01/19 06:34:06;;;;;;;16.83;13.07;;;1.90;62.40;;;;;;4992352;28;20941;-84
2022/01/19 06:36:31;;;;;;;11.90;10.70;;;2.00;62.50;;;;;;4975708;28;20670;-84
2022/01/19 06:38:57;;;;;;;11.37;10.27;;;2.10;61.90;;;;;;4992568;28;20413;-84
2022/01/19 06:41:23;;;;;;;12.73;11.23;;;2.00;60.80;;;;;;4991959;28;20622;-85
2022/01/19 06:43:49;;;;;;;13.93;11.67;;;2.10;62.20;;;;;;4991814;28;20188;-85
2022/01/19 06:46:14;;;;;;;14.43;12.60;;;2.20;63.80;;;;;;4991792;28;20925;-85
2022/01/19 06:48:40;;;;;;;13.30;11.90;;;2.10;62.00;;;;;;4991829;28;20631;-85
2022/01/19 06:51:06;;;;;;;14.00;11.43;;;2.10;61.80;;;;;;4991584;28;20193;-84
2022/01/19 06:53:32;;;;;;;12.93;11.27;;;2.10;60.90;;;;;;4990861;28;20458;-85
2022/01/19 06:55:58;;;;;;;14.50;11.80;;;2.20;62.30;;;;;;4992358;28;20181;-85
2022/01/19 06:58:25;;;;;;;15.53;12.17;;;2.20;62.00;;;;;;4992470;28;20553;-85
2022/01/19 07:00:50;;;;;;;13.40;10.47;;;2.10;61.60;;;;;;4991522;28;20182;-84
2022/01/19 07:03:16;;;;;;;13.10;11.73;;;2.10;62.20;;;;;;4991466;28;20428;-84
2022/01/19 07:05:42;;;;;;;17.95;13.32;;;2.10;61.90;;;;;;4990384;28;20416;-83
2022/01/19 07:08:08;;;;;;;15.30;11.88;;;2.10;61.90;;;;;;4990798;28;20176;-84
2022/01/19 07:10:34;;;;;;;14.30;12.80;;;2.20;62.40;;;;;;4990709;28;20224;-85
2022/01/19 07:13:01;;;;;;;13.63;12.10;;;2.20;62.60;;;;;;4990597;28;20228;-85
2022/01/19 07:15:28;;;;;;;16.30;13.27;;;2.10;62.20;;;;;;4990728;28;20420;-85
2022/01/19 07:17:53;;;;;;;13.93;12.18;;;2.20;63.60;;;;;;4990184;28;20412;-84
2022/01/19 07:20:19;;;;;;;26.17;12.53;;;2.20;63.60;;;;;;4990285;28;20536;-84
2022/01/19 07:22:45;;;;;;;11.70;10.50;;;2.10;63.00;;;;;;4990849;28;20456;-84
2022/01/19 07:25:11;;;;;;;13.53;11.27;;;2.10;62.30;;;;;;4990724;28;20174;-84
2022/01/19 07:27:36;;;;;;;16.23;11.60;;;2.00;62.80;;;;;;4990521;28;20184;-84
2022/01/19 07:30:04;;;;;;;18.43;12.80;;;2.00;61.60;;;;;;4990303;28;20478;-85
2022/01/19 07:32:34;;;;;;;14.97;12.37;;;2.10;62.50;;;;;;4990410;28;20620;-85
2022/01/19 07:35:00;;;;;;;15.48;13.07;;;2.10;62.80;;;;;;4993159;28;20483;-85
2022/01/19 07:37:26;;;;;;;14.13;12.57;;;2.00;62.30;;;;;;4994068;28;20186;-84
2022/01/19 07:39:51;;;;;;;15.40;13.80;;;2.10;62.10;;;;;;4993866;28;20417;-87
2022/01/19 07:42:17;;;;;;;15.70;13.20;;;2.10;63.20;;;;;;4992702;28;20453;-84
2022/01/19 07:44:43;;;;;;;14.20;12.70;;;2.10;61.40;;;;;;4993860;28;20445;-86
2022/01/19 07:47:10;;;;;;;14.83;11.97;;;2.10;62.20;;;;;;4994074;28;20611;-83
2022/01/19 07:49:36;;;;;;;15.60;13.10;;;2.10;61.20;;;;;;4996003;28;20503;-85
2022/01/19 07:52:01;;;;;;;13.13;11.93;;;2.10;62.80;;;;;;4999855;28;20423;-84
2022/01/19 07:54:27;;;;;;;13.50;12.10;;;2.10;62.00;;;;;;5003039;28;20276;-86
2022/01/19 07:56:53;;;;;;;13.63;12.23;;;2.10;62.00;;;;;;4999459;28;20730;-86
2022/01/19 07:59:19;;;;;;;14.40;12.87;;;2.10;62.30;;;;;;5009518;28;20205;-85
2022/01/19 08:01:44;;;;;;;14.80;13.30;;;2.20;62.30;;;;;;4993379;28;20263;-85
2022/01/19 08:04:10;;;;;;;14.47;13.13;;;2.10;61.60;;;;;;4992936;28;20208;-85
2022/01/19 08:06:36;;;;;;;15.30;13.70;;;2.00;61.90;;;;;;4993312;28;20174;-85
2022/01/19 08:09:02;;;;;;;15.20;13.60;;;2.10;61.70;;;;;;4992711;28;20212;-86
2022/01/19 08:11:28;;;;;;;15.30;13.23;;;2.10;62.60;;;;;;4992762;28;20181;-86
2022/01/19 08:13:54;;;;;;;19.37;16.60;;;2.10;62.00;;;;;;4992743;28;20279;-85
2022/01/19 08:16:21;;;;;;;16.73;14.30;;;2.10;62.20;;;;;;4992880;28;20210;-85
2022/01/19 08:18:47;;;;;;;15.45;13.85;;;2.00;61.70;;;;;;4992936;28;20544;-85
2022/01/19 08:21:12;;;;;;;16.37;14.67;;;2.10;62.60;;;;;;4992494;28;20201;-85
2022/01/19 08:23:38;;;;;;;15.60;13.70;;;2.10;61.90;;;;;;4993301;28;20424;-85
2022/01/19 08:26:04;;;;;;;21.20;16.40;;;2.20;62.80;;;;;;4992654;28;20705;-84
2022/01/19 08:28:30;;;;;;;16.33;14.73;;;2.30;62.70;;;;;;4997260;28;20176;-85
2022/01/19 08:30:55;;;;;;;15.73;14.10;;;2.20;62.00;;;;;;5012323;28;20423;-85
2022/01/19 08:33:21;;;;;;;22.87;14.77;;;2.20;62.40;;;;;;5012817;28;20574;-85
2022/01/19 08:35:46;;;;;;;16.10;14.17;;;2.30;62.30;;;;;;5012356;28;20185;-85
2022/01/19 08:38:12;;;;;;;17.53;15.60;;;2.30;62.20;;;;;;5011909;28;20183;-86
2022/01/19 08:40:38;;;;;;;15.70;14.30;;;2.40;61.40;;;;;;5011739;28;20535;-86
2022/01/19 08:43:05;;;;;;;19.00;16.63;;;2.40;60.70;;;;;;5011938;28;20241;-86
2022/01/19 08:45:32;;;;;;;16.87;15.10;;;2.40;62.00;;;;;;5011897;28;20420;-86
2022/01/19 08:48:01;;;;;;;16.47;14.77;;;2.40;62.00;;;;;;5012254;28;21016;-85
2022/01/19 08:50:26;;;;;;;16.83;15.17;;;2.50;62.50;;;;;;5011798;28;20470;-85
2022/01/19 08:52:52;;;;;;;17.33;15.53;;;2.50;60.70;;;;;;5011369;28;20450;-85
2022/01/19 08:55:18;;;;;;;16.37;14.67;;;2.60;60.60;;;;;;5011579;28;20195;-86
2022/01/19 08:57:46;;;;;;;16.00;14.30;;;2.60;62.00;;;;;;4992813;28;20220;-84
2022/01/19 09:00:13;;;;;;;16.77;15.00;;;2.60;61.50;;;;;;4991879;28;20990;-85
2022/01/19 09:02:39;;;;;;;16.37;14.57;;;2.60;61.60;;;;;;4992060;28;20560;-85
2022/01/19 09:05:06;;;;;;;16.67;15.10;;;2.60;61.30;;;;;;4992131;28;20818;-85
2022/01/19 09:07:32;;;;;;;16.97;14.87;;;2.70;61.70;;;;;;4992146;28;20174;-84
2022/01/19 09:09:58;;;;;;;20.13;15.87;;;2.70;61.60;;;;;;4992310;28;20452;-84
2022/01/19 09:12:24;;;;;;;16.37;14.67;;;2.80;60.60;;;;;;4992534;28;20847;-84
2022/01/19 09:14:51;;;;;;;16.23;14.67;;;2.80;60.60;;;;;;4992447;28;20794;-85
2022/01/19 09:17:17;;;;;;;17.57;15.77;;;2.90;60.70;;;;;;4992401;28;20416;-85
2022/01/19 09:19:42;;;;;;;17.37;15.20;;;3.00;60.30;;;;;;4991754;28;20413;-85
2022/01/19 09:22:10;;;;;;;16.93;13.97;;;3.10;60.90;;;;;;4991787;28;20464;-85
2022/01/19 09:24:37;;;;;;;16.60;14.70;;;3.10;59.60;;;;;;4992186;28;20193;-86
2022/01/19 09:27:04;;;;;;;16.77;14.97;;;3.10;59.70;;;;;;4991749;28;20783;-86
2022/01/19 09:29:30;;;;;;;14.80;13.30;;;3.20;58.90;;;;;;4991467;28;20416;-84
2022/01/19 09:31:57;;;;;;;15.50;14.00;;;3.20;58.50;;;;;;4991641;28;20444;-84
2022/01/19 09:34:23;;;;;;;15.37;13.87;;;3.30;58.50;;;;;;4991570;28;20867;-85
2022/01/19 09:36:49;;;;;;;17.93;16.17;;;3.40;59.10;;;;;;4991511;28;20431;-85
2022/01/19 09:39:23;;;;;;;16.27;14.60;;;3.40;58.60;;;;;;4991394;28;20802;-85
2022/01/19 09:41:49;;;;;;;16.53;14.83;;;3.40;57.60;;;;;;4991394;28;20238;-85
2022/01/19 09:44:17;;;;;;;16.37;13.03;;;3.40;57.70;;;;;;5002860;28;20413;-85
2022/01/19 09:46:43;;;;;;;14.97;13.37;;;3.40;58.20;;;;;;5005348;28;20416;-85
2022/01/19 09:49:09;;;;;;;17.50;14.20;;;3.40;56.50;;;;;;4992471;28;20424;-85
2022/01/19 09:51:35;;;;;;;15.93;13.73;;;3.50;57.90;;;;;;4991181;28;20421;-85
2022/01/19 09:54:02;;;;;;;15.70;13.97;;;3.60;57.40;;;;;;4991067;28;20545;-85
2022/01/19 09:56:28;;;;;;;17.50;13.90;;;3.70;58.50;;;;;;4990991;28;20418;-85
2022/01/19 09:58:54;;;;;;;15.50;13.83;;;3.80;57.60;;;;;;4992198;28;20445;-84
2022/01/19 10:01:22;;;;;;;16.43;14.53;;;3.90;57.70;;;;;;4991028;28;20465;-84
2022/01/19 10:03:48;;;;;;;15.27;13.77;;;4.00;57.70;;;;;;4991174;28;20791;-84
2022/01/19 10:06:19;;;;;;;19.67;14.73;;;4.10;56.30;;;;;;4991065;28;20421;-84
2022/01/19 10:08:48;;;;;;;15.00;13.47;;;4.20;56.50;;;;;;4991102;28;20846;-83
2022/01/19 10:17:02;;;;;;;14.03;12.00;;;4.30;54.10;;;;;;4992546;28;20455;-84
2022/01/19 10:19:49;;;;;;;15.47;13.77;;;4.20;55.30;;;;;;4991065;28;20424;-84
2022/01/19 10:22:25;;;;;;;13.07;11.77;;;4.30;54.90;;;;;;4990992;28;20548;-83
2022/01/19 10:25:00;;;;;;;15.73;14.03;;;4.30;55.00;;;;;;4990637;28;21079;-83
2022/01/19 10:27:32;;;;;;;16.73;12.97;;;4.30;55.40;;;;;;4991271;28;20524;-82
2022/01/19 10:30:04;;;;;;;18.63;12.73;;;4.30;55.30;;;;;;4990680;28;20741;-83
2022/01/19 10:32:40;;;;;;;18.60;13.13;;;4.30;54.50;;;;;;4991077;28;20517;-84
2022/01/19 10:35:21;;;;;;;16.53;14.00;;;4.30;55.60;;;;;;4998838;28;20516;-83
2022/01/19 10:38:09;;;;;;;15.90;12.60;;;4.40;55.40;;;;;;5010310;28;20424;-83
2022/01/19 10:40:37;;;;;;;13.77;12.40;;;4.40;54.20;;;;;;5003398;28;20447;-83
2022/01/19 10:43:33;;;;;;;13.07;11.77;;;4.40;53.90;;;;;;5010251;28;20463;-84
2022/01/19 10:46:21;;;;;;;12.67;11.30;;;4.40;53.70;;;;;;5010365;28;20416;-83
2022/01/19 10:48:47;;;;;;;12.73;11.63;;;4.50;53.00;;;;;;5010219;28;20416;-83
2022/01/19 10:51:12;;;;;;;12.70;11.60;;;4.50;53.40;;;;;;5010308;28;20774;-84
2022/01/19 10:53:40;;;;;;;16.80;12.63;;;4.50;53.50;;;;;;5010492;28;20224;-84
2022/01/19 10:56:06;;;;;;;14.60;11.97;;;4.50;52.60;;;;;;5009942;28;20181;-83
2022/01/19 10:58:51;;;;;;;13.47;12.17;;;4.60;53.10;;;;;;5010528;28;20499;-82
2022/01/19 11:01:38;;;;;;;12.13;10.93;;;4.60;51.70;;;;;;5010028;28;20460;-83
2022/01/19 11:04:38;;;;;;;11.97;10.80;;;4.60;52.40;;;;;;5004799;28;20926;-84
2022/01/19 11:07:22;;;;;;;13.03;11.70;;;4.60;52.50;;;;;;4981392;28;20786;-83
2022/01/19 11:10:00;;;;;;;11.60;9.87;;;4.70;53.00;;;;;;4993007;28;20417;-84
2022/01/19 11:12:29;;;;;;;13.63;10.77;;;4.70;53.00;;;;;;4994734;28;20423;-86
2022/01/19 11:14:55;;;;;;;13.60;10.77;;;4.80;53.60;;;;;;4997072;28;20420;-83
2022/01/19 11:17:21;;;;;;;12.27;10.77;;;4.80;53.00;;;;;;5000070;28;20417;-83
2022/01/19 11:19:49;;;;;;;15.93;12.70;;;4.80;53.40;;;;;;4998505;28;20443;-83
2022/01/19 11:22:51;;;;;;;13.63;12.33;;;4.80;52.60;;;;;;4994129;28;20206;-85
2022/01/19 11:25:37;;;;;;;13.10;11.90;;;4.80;52.90;;;;;;4994131;28;20412;-83
2022/01/19 11:28:03;;;;;;;14.67;10.80;;;4.90;51.40;;;;;;4993836;28;20460;-84
2022/01/19 11:30:32;;;;;;;12.97;11.60;;;4.90;52.10;;;;;;4993964;28;20425;-83
2022/01/19 11:33:24;;;;;;;15.90;13.23;;;5.00;51.50;;;;;;4993501;28;20213;-84
2022/01/19 11:36:01;;;;;;;15.57;14.07;;;5.00;51.70;;;;;;4993693;28;20428;-84
2022/01/19 11:38:41;;;;;;;14.67;13.17;;;5.00;51.40;;;;;;5010040;28;20423;-84
2022/01/19 11:41:07;;;;;;;15.90;13.73;;;5.10;51.10;;;;;;4998043;28;20461;-83
2022/01/19 11:43:33;;;;;;;15.93;14.20;;;5.10;50.90;;;;;;4993412;28;20503;-83
2022/01/19 11:46:02;;;;;;;15.50;14.00;;;5.10;50.80;;;;;;4993009;28;20229;-83
2022/01/19 11:48:32;;;;;;;15.60;14.10;;;5.10;51.20;;;;;;4993516;28;20799;-83
2022/01/19 11:51:25;;;;;;;16.20;13.37;;;5.20;50.90;;;;;;4993042;28;20421;-83
2022/01/19 11:54:21;;;;;;;14.03;12.70;;;5.20;50.60;;;;;;5012815;28;20529;-84
2022/01/19 11:56:59;;;;;;;16.20;14.37;;;5.30;50.30;;;;;;5009697;28;20412;-84
2022/01/19 11:59:46;;;;;;;15.23;13.63;;;5.30;49.90;;;;;;5013559;28;20412;-83
2022/01/19 12:02:20;;;;;;;15.70;13.93;;;5.30;50.00;;;;;;5012464;28;20463;-83
2022/01/19 12:04:54;;;;;;;14.00;11.90;;;5.30;50.20;;;;;;5012648;28;20415;-83
2022/01/19 12:07:42;;;;;;;14.60;13.07;;;5.20;50.60;;;;;;4997650;28;20460;-84
2022/01/19 12:10:30;;;;;;;15.43;12.00;;;5.20;50.00;;;;;;4992700;28;20702;-83
2022/01/19 12:16:11;;;;;;;13.50;12.20;;;5.10;51.20;;;;;;5002516;28;20792;-83
2022/01/19 12:18:47;;;;;;;12.17;10.97;;;5.10;51.50;;;;;;4993037;28;20425;-83
2022/01/19 12:21:48;;;;;;;16.90;12.40;;;5.00;51.10;;;;;;4992262;28;20828;-84
2022/01/19 12:24:19;;;;;;;12.70;11.40;;;5.00;51.10;;;;;;4992708;28;20448;-83
2022/01/19 12:27:03;;;;;;;13.30;11.43;;;5.10;51.00;;;;;;4993119;28;20418;-84
2022/01/19 12:29:37;;;;;;;11.77;10.63;;;5.00;51.40;;;;;;4992913;28;20504;-84
2022/01/19 12:32:05;;;;;;;13.50;11.50;;;4.90;52.00;;;;;;4992409;28;20458;-83
2022/01/19 12:34:44;;;;;;;13.33;10.97;;;4.90;52.30;;;;;;4993123;28;20428;-83
2022/01/19 12:37:11;;;;;;;12.13;10.63;;;5.10;52.60;;;;;;4992374;28;20455;-83
2022/01/19 12:39:45;;;;;;;13.20;10.97;;;5.10;51.70;;;;;;4992934;28;20464;-84
2022/01/19 12:42:18;;;;;;;10.50;9.47;;;5.20;50.20;;;;;;4992888;28;20465;-86
2022/01/19 12:44:54;;;;;;;14.17;10.80;;;5.00;51.00;;;;;;4993061;28;20417;-84
2022/01/19 12:47:28;;;;;;;10.20;9.20;;;5.00;51.20;;;;;;4992957;28;20793;-85
2022/01/19 12:50:02;;;;;;;10.73;9.63;;;5.00;50.90;;;;;;4992517;28;20416;-85
2022/01/19 12:52:30;;;;;;;12.30;10.30;;;5.10;51.40;;;;;;4996269;28;20809;-85
2022/01/19 12:55:00;;;;;;;12.50;10.80;;;5.10;51.30;;;;;;5012023;28;20486;-85
2022/01/19 12:57:29;;;;;;;13.60;12.30;;;5.10;50.50;;;;;;5012333;28;20500;-84
2022/01/19 12:59:55;;;;;;;12.00;10.77;;;5.10;51.30;;;;;;5013142;28;20507;-83
2022/01/19 13:02:28;;;;;;;10.00;9.03;;;5.10;50.50;;;;;;4994899;28;20887;-84
2022/01/19 13:05:04;;;;;;;13.13;10.93;;;5.20;50.90;;;;;;4993489;28;20496;-85
2022/01/19 13:07:31;;;;;;;11.30;10.23;;;5.30;51.10;;;;;;4993472;28;20428;-85
2022/01/19 13:10:04;;;;;;;14.03;9.40;;;5.30;51.10;;;;;;4991868;28;20421;-84
2022/01/19 13:12:48;;;;;;;9.60;8.73;;;5.30;50.60;;;;;;4994578;28;22101;-84
2022/01/19 13:15:14;;;;;;;10.50;9.50;;;5.30;50.00;;;;;;5011630;28;20432;-84
2022/01/19 13:17:45;;;;;;;10.63;9.53;;;5.40;49.90;;;;;;4997921;28;20436;-84
2022/01/19 13:20:14;;;;;;;8.37;7.60;;;5.50;50.00;;;;;;4993197;28;20204;-84
2022/01/19 13:22:49;;;;;;;11.10;9.90;;;5.50;49.40;;;;;;4992216;28;20473;-83
2022/01/19 13:25:25;;;;;;;15.13;6.50;;;5.50;50.10;;;;;;4992596;28;20513;-84
2022/01/19 13:27:56;;;;;;;11.10;7.47;;;5.60;50.00;;;;;;4992729;28;20456;-84
2022/01/19 13:30:28;;;;;;;11.40;10.23;;;5.60;49.60;;;;;;4993498;28;20425;-84
2022/01/19 13:32:54;;;;;;;14.60;9.47;;;5.60;50.50;;;;;;4991278;28;20513;-84
2022/01/19 13:35:21;;;;;;;11.57;10.47;;;5.70;50.70;;;;;;4992063;28;20436;-83
2022/01/19 13:37:55;;;;;;;9.23;6.10;;;5.70;51.10;;;;;;4991708;28;20429;-83
2022/01/19 13:40:23;;;;;;;9.27;6.47;;;5.60;50.50;;;;;;4991621;28;20478;-84
2022/01/19 13:43:04;;;;;;;12.47;6.53;;;5.60;51.40;;;;;;4991626;28;20518;-83
2022/01/19 13:45:48;;;;;;;10.43;6.53;;;5.60;52.20;;;;;;4991567;28;20949;-83
2022/01/19 13:48:29;;;;;;;9.00;6.90;;;5.70;52.70;;;;;;4995189;28;20444;-85
2022/01/19 13:50:59;;;;;;;8.83;5.60;;;5.70;51.50;;;;;;5027201;28;20416;-83
2022/01/19 13:53:37;;;;;;;13.23;6.93;;;5.70;51.90;;;;;;5027268;28;20825;-84
2022/01/19 13:56:11;;;;;;;7.37;5.50;;;5.80;49.60;;;;;;5027301;28;20811;-84
2022/01/19 13:58:49;;;;;;;9.83;5.23;;;5.80;49.20;;;;;;5027268;28;20435;-84
2022/01/19 14:01:20;;;;;;;8.77;6.27;;;5.80;50.50;;;;;;5026943;28;20498;-85
2022/01/19 14:04:00;;;;;;;8.40;5.93;;;5.90;49.00;;;;;;5027340;28;20433;-84
2022/01/19 14:06:30;;;;;;;10.37;6.90;;;6.00;50.40;;;;;;5027147;28;20440;-84
2022/01/19 14:09:06;;;;;;;7.27;4.83;;;6.00;49.10;;;;;;5010644;28;20998;-83
2022/01/19 14:11:32;;;;;;;7.30;5.40;;;6.10;47.80;;;;;;5010908;28;20424;-86
2022/01/19 14:14:04;;;;;;;7.33;4.67;;;6.10;47.10;;;;;;5010594;28;20507;-85
2022/01/19 14:16:38;;;;;;;6.77;4.50;;;6.20;47.70;;;;;;5011124;28;20771;-86
2022/01/19 14:19:25;;;;;;;7.20;4.80;;;6.20;47.40;;;;;;5010394;28;20838;-85
2022/01/19 14:22:07;;;;;;;9.83;6.70;;;6.30;46.40;;;;;;5010514;28;20463;-85
2022/01/19 14:24:46;;;;;;;7.03;4.63;;;6.30;46.50;;;;;;5010464;28;20428;-85
2022/01/19 14:27:16;;;;;;;7.53;4.20;;;6.30;44.80;;;;;;5010237;28;20424;-84
2022/01/19 14:30:03;;;;;;;4.40;4.00;;;6.30;44.30;;;;;;5010131;28;20415;-85